sensor_id;sensor_type;location;lat;lon;timestamp;pressure;altitude;pressure_sealevel;temperature;humidity
30967;BME280;17649;51.836;8.330;2022-08-03T00:07:46;101020.94;;;19.64;nan
30967;BME280;17649;51.836;8.330;2022-08-03T00:19:35;101041.34;;;19.61;nan
30967;BME280;17649;51.836;8.330;2022-08-03T00:45:52;101010.53;;;19.32;nan
30967;BME280;17649;51.836;8.330;2022-08-03T00:49:14;101004.59;;;19.30;nan
30967;BME280;17649;51.836;8.330;2022-08-03T00:52:38;101017.34;;;19.45;nan
30967;BME280;17649;51.836;8.330;2022-08-03T00:55:39;100998.25;;;19.33;nan
30967;BME280;17649;51.836;8.330;2022-08-03T01:03:43;101003.88;;;19.28;nan
30967;BME280;17649;51.836;8.330;2022-08-03T01:35:16;100994.81;;;18.81;nan
30967;BME280;17649;51.836;8.330;2022-08-03T01:42:56;100997.81;;;18.76;nan
30967;BME280;17649;51.836;8.330;2022-08-03T01:46:43;101006.75;;;18.74;nan
30967;BME280;17649;51.836;8.330;2022-08-03T01:50:06;101006.88;;;18.72;nan
30967;BME280;17649;51.836;8.330;2022-08-03T01:57:16;100997.88;;;18.54;nan
30967;BME280;17649;51.836;8.330;2022-08-03T02:00:27;101009.31;;;18.64;nan
30967;BME280;17649;51.836;8.330;2022-08-03T02:04:06;101004.06;;;18.64;nan
30967;BME280;17649;51.836;8.330;2022-08-03T02:15:57;100971.28;;;18.38;nan
30967;BME280;17649;51.836;8.330;2022-08-03T02:27:16;101007.94;;;18.49;nan
30967;BME280;17649;51.836;8.330;2022-08-03T02:30:37;101004.72;;;18.45;nan
30967;BME280;17649;51.836;8.330;2022-08-03T02:34:02;101012.25;;;18.39;nan
30967;BME280;17649;51.836;8.330;2022-08-03T02:37:55;101006.75;;;18.42;nan
30967;BME280;17649;51.836;8.330;2022-08-03T02:41:35;100977.78;;;18.23;nan
30967;BME280;17649;51.836;8.330;2022-08-03T02:44:36;100987.56;;;18.21;nan
30967;BME280;17649;51.836;8.330;2022-08-03T02:55:47;101007.28;;;18.25;nan
30967;BME280;17649;51.836;8.330;2022-08-03T03:10:07;100996.66;;;18.05;nan
30967;BME280;17649;51.836;8.330;2022-08-03T03:27:39;101006.63;;;18.00;nan
30967;BME280;17649;51.836;8.330;2022-08-03T03:31:23;101002.34;;;17.99;nan
30967;BME280;17649;51.836;8.330;2022-08-03T04:10:08;101005.22;;;17.96;nan
30967;BME280;17649;51.836;8.330;2022-08-03T04:59:47;100992.66;;;18.54;nan
30967;BME280;17649;51.836;8.330;2022-08-03T05:03:50;100988.25;;;18.55;nan
30967;BME280;17649;51.836;8.330;2022-08-03T05:11:50;100984.25;;;18.71;nan
30967;BME280;17649;51.836;8.330;2022-08-03T05:27:26;100999.41;;;19.19;nan
30967;BME280;17649;51.836;8.330;2022-08-03T05:38:53;100997.59;;;19.41;nan
30967;BME280;17649;51.836;8.330;2022-08-03T06:03:30;100978.16;;;20.03;nan
30967;BME280;17649;51.836;8.330;2022-08-03T07:49:40;100970.38;;;24.79;nan
30967;BME280;17649;51.836;8.330;2022-08-03T07:53:29;100946.22;;;24.82;nan
30967;BME280;17649;51.836;8.330;2022-08-03T08:05:14;100954.44;;;25.19;nan
30967;BME280;17649;51.836;8.330;2022-08-03T08:08:38;100952.91;;;25.25;nan
30967;BME280;17649;51.836;8.330;2022-08-03T08:11:48;100955.19;;;25.36;nan
30967;BME280;17649;51.836;8.330;2022-08-03T08:15:44;100957.00;;;25.67;nan
30967;BME280;17649;51.836;8.330;2022-08-03T08:18:47;100947.53;;;25.80;nan
30967;BME280;17649;51.836;8.330;2022-08-03T08:22:08;100949.50;;;26.01;nan
30967;BME280;17649;51.836;8.330;2022-08-03T08:25:09;100946.63;;;26.11;nan
30967;BME280;17649;51.836;8.330;2022-08-03T08:28:16;100923.13;;;26.08;nan
30967;BME280;17649;51.836;8.330;2022-08-03T08:31:19;100922.59;;;26.12;nan
30967;BME280;17649;51.836;8.330;2022-08-03T08:34:34;100926.47;;;26.25;nan
30967;BME280;17649;51.836;8.330;2022-08-03T08:38:09;100942.50;;;26.69;nan
30967;BME280;17649;51.836;8.330;2022-08-03T08:42:02;100930.53;;;27.02;nan
30967;BME280;17649;51.836;8.330;2022-08-03T08:48:58;100928.69;;;27.18;nan
30967;BME280;17649;51.836;8.330;2022-08-03T08:52:15;100925.41;;;27.16;nan
30967;BME280;17649;51.836;8.330;2022-08-03T08:55:36;100930.34;;;27.19;nan
30967;BME280;17649;51.836;8.330;2022-08-03T08:59:24;100927.16;;;27.23;nan
30967;BME280;17649;51.836;8.330;2022-08-03T09:02:57;100907.34;;;27.26;nan
30967;BME280;17649;51.836;8.330;2022-08-03T09:06:36;100927.72;;;27.55;nan
30967;BME280;17649;51.836;8.330;2022-08-03T09:10:16;100912.25;;;27.44;nan
30967;BME280;17649;51.836;8.330;2022-08-03T09:13:38;100922.00;;;27.73;nan
30967;BME280;17649;51.836;8.330;2022-08-03T09:17:03;100903.53;;;27.86;nan
30967;BME280;17649;51.836;8.330;2022-08-03T09:20:12;100911.81;;;27.98;nan
30967;BME280;17649;51.836;8.330;2022-08-03T09:23:13;100917.94;;;28.19;nan
30967;BME280;17649;51.836;8.330;2022-08-03T09:26:52;100914.16;;;28.29;nan
30967;BME280;17649;51.836;8.330;2022-08-03T09:30:19;100888.06;;;28.45;nan
30967;BME280;17649;51.836;8.330;2022-08-03T09:34:03;100905.69;;;28.81;nan
30967;BME280;17649;51.836;8.330;2022-08-03T09:37:34;100894.25;;;28.52;nan
30967;BME280;17649;51.836;8.330;2022-08-03T09:41:16;100900.88;;;28.98;nan
30967;BME280;17649;51.836;8.330;2022-08-03T09:44:48;100879.28;;;28.86;nan
30967;BME280;17649;51.836;8.330;2022-08-03T10:04:11;100877.63;;;28.85;nan
30967;BME280;17649;51.836;8.330;2022-08-03T10:11:37;100896.50;;;29.31;nan
30967;BME280;17649;51.836;8.330;2022-08-03T10:23:28;100874.66;;;29.76;nan
30967;BME280;17649;51.836;8.330;2022-08-03T10:33:42;100887.25;;;30.08;nan
30967;BME280;17649;51.836;8.330;2022-08-03T10:36:48;100885.81;;;30.12;nan
30967;BME280;17649;51.836;8.330;2022-08-03T10:40:01;100858.28;;;29.65;nan
30967;BME280;17649;51.836;8.330;2022-08-03T10:43:21;100860.94;;;29.79;nan
30967;BME280;17649;51.836;8.330;2022-08-03T10:46:28;100852.34;;;29.77;nan
30967;BME280;17649;51.836;8.330;2022-08-03T10:49:51;100877.75;;;30.45;nan
30967;BME280;17649;51.836;8.330;2022-08-03T10:53:06;100870.56;;;30.66;nan
30967;BME280;17649;51.836;8.330;2022-08-03T10:56:44;100870.19;;;30.36;nan
30967;BME280;17649;51.836;8.330;2022-08-03T11:00:06;100849.97;;;30.73;nan
30967;BME280;17649;51.836;8.330;2022-08-03T11:03:23;100839.94;;;30.48;nan
30967;BME280;17649;51.836;8.330;2022-08-03T11:10:36;100858.41;;;31.28;nan
30967;BME280;17649;51.836;8.330;2022-08-03T11:18:08;100854.84;;;31.40;nan
30967;BME280;17649;51.836;8.330;2022-08-03T11:28:28;100838.88;;;31.84;nan
30967;BME280;17649;51.836;8.330;2022-08-03T11:31:49;100841.91;;;32.12;nan
30967;BME280;17649;51.836;8.330;2022-08-03T12:01:31;100838.28;;;35.44;nan
30967;BME280;17649;51.836;8.330;2022-08-03T12:07:59;100824.88;;;35.82;nan
30967;BME280;17649;51.836;8.330;2022-08-03T12:15:17;100840.06;;;35.55;nan
30967;BME280;17649;51.836;8.330;2022-08-03T12:23:04;100831.63;;;37.97;nan
30967;BME280;17649;51.836;8.330;2022-08-03T12:26:17;100816.91;;;37.78;nan
30967;BME280;17649;51.836;8.330;2022-08-03T12:29:24;100822.88;;;36.28;nan
30967;BME280;17649;51.836;8.330;2022-08-03T12:32:42;100812.97;;;36.12;nan
30967;BME280;17649;51.836;8.330;2022-08-03T12:36:21;100803.72;;;35.86;nan
30967;BME280;17649;51.836;8.330;2022-08-03T12:39:45;100817.38;;;37.70;nan
30967;BME280;17649;51.836;8.330;2022-08-03T12:55:18;100811.50;;;38.98;nan
30967;BME280;17649;51.836;8.330;2022-08-03T13:18:45;100789.88;;;39.94;nan
30967;BME280;17649;51.836;8.330;2022-08-03T13:25:50;100796.50;;;43.45;nan
30967;BME280;17649;51.836;8.330;2022-08-03T13:37:02;100791.13;;;40.77;nan
30967;BME280;17649;51.836;8.330;2022-08-03T13:40:28;100783.78;;;41.22;nan
30967;BME280;17649;51.836;8.330;2022-08-03T13:44:15;100787.97;;;42.44;nan
30967;BME280;17649;51.836;8.330;2022-08-03T14:29:12;100745.75;;;42.84;nan
30967;BME280;17649;51.836;8.330;2022-08-03T14:37:04;100757.28;;;42.62;nan
30967;BME280;17649;51.836;8.330;2022-08-03T14:58:47;100704.47;;;45.36;nan
30967;BME280;17649;51.836;8.330;2022-08-03T15:02:17;100732.91;;;42.14;nan
30967;BME280;17649;51.836;8.330;2022-08-03T15:05:58;100730.25;;;41.85;nan
30967;BME280;17649;51.836;8.330;2022-08-03T15:13:44;100723.75;;;42.05;nan
30967;BME280;17649;51.836;8.330;2022-08-03T15:17:10;100723.97;;;41.03;nan
30967;BME280;17649;51.836;8.330;2022-08-03T15:24:29;100719.22;;;41.19;nan
30967;BME280;17649;51.836;8.330;2022-08-03T15:27:47;100694.47;;;43.70;nan
30967;BME280;17649;51.836;8.330;2022-08-03T15:35:26;100705.34;;;45.54;nan
30967;BME280;17649;51.836;8.330;2022-08-03T15:42:40;100704.78;;;44.59;nan
30967;BME280;17649;51.836;8.330;2022-08-03T16:12:03;100696.63;;;44.09;nan
30967;BME280;17649;51.836;8.330;2022-08-03T16:36:23;100695.38;;;39.88;nan
30967;BME280;17649;51.836;8.330;2022-08-03T16:39:32;100673.84;;;41.53;nan
30967;BME280;17649;51.836;8.330;2022-08-03T16:53:43;100686.63;;;44.18;nan
30967;BME280;17649;51.836;8.330;2022-08-03T17:41:18;100694.13;;;33.77;nan
30967;BME280;17649;51.836;8.330;2022-08-03T17:44:39;100700.78;;;33.63;nan
30967;BME280;17649;51.836;8.330;2022-08-03T18:22:08;100697.91;;;31.84;nan
30967;BME280;17649;51.836;8.330;2022-08-03T18:41:30;100711.19;;;30.91;nan
30967;BME280;17649;51.836;8.330;2022-08-03T18:48:31;100711.59;;;30.50;nan
30967;BME280;17649;51.836;8.330;2022-08-03T18:51:45;100723.13;;;30.44;nan
30967;BME280;17649;51.836;8.330;2022-08-03T18:55:29;100724.03;;;30.18;nan
30967;BME280;17649;51.836;8.330;2022-08-03T18:58:55;100737.22;;;30.13;nan
30967;BME280;17649;51.836;8.330;2022-08-03T19:02:09;100737.22;;;29.93;nan
30967;BME280;17649;51.836;8.330;2022-08-03T19:05:27;100708.16;;;29.52;nan
30967;BME280;17649;51.836;8.330;2022-08-03T19:09:09;100751.81;;;29.51;nan
30967;BME280;17649;51.836;8.330;2022-08-03T19:12:41;100758.34;;;29.22;nan
30967;BME280;17649;51.836;8.330;2022-08-03T19:15:47;100761.97;;;29.01;nan
30967;BME280;17649;51.836;8.330;2022-08-03T19:18:52;100758.19;;;28.75;nan
30967;BME280;17649;51.836;8.330;2022-08-03T19:21:54;100765.91;;;28.57;nan
30967;BME280;17649;51.836;8.330;2022-08-03T19:24:59;100740.31;;;28.21;nan
30967;BME280;17649;51.836;8.330;2022-08-03T19:28:06;100770.59;;;28.20;nan
30967;BME280;17649;51.836;8.330;2022-08-03T19:31:10;100774.59;;;28.03;nan
30967;BME280;17649;51.836;8.330;2022-08-03T19:34:18;100773.47;;;27.91;nan
30967;BME280;17649;51.836;8.330;2022-08-03T19:37:29;100762.28;;;27.68;nan
30967;BME280;17649;51.836;8.330;2022-08-03T19:40:32;100771.16;;;27.60;nan
30967;BME280;17649;51.836;8.330;2022-08-03T19:43:51;100777.63;;;27.51;nan
30967;BME280;17649;51.836;8.330;2022-08-03T19:46:59;100782.25;;;27.42;nan
30967;BME280;17649;51.836;8.330;2022-08-03T19:50:05;100787.63;;;27.27;nan
30967;BME280;17649;51.836;8.330;2022-08-03T19:53:08;100791.41;;;27.18;nan
30967;BME280;17649;51.836;8.330;2022-08-03T19:56:09;100787.41;;;27.08;nan
30967;BME280;17649;51.836;8.330;2022-08-03T19:59:15;100773.50;;;26.91;nan
30967;BME280;17649;51.836;8.330;2022-08-03T20:02:18;100793.91;;;26.90;nan
30967;BME280;17649;51.836;8.330;2022-08-03T20:05:32;100791.59;;;26.81;nan
30967;BME280;17649;51.836;8.330;2022-08-03T20:08:33;100787.31;;;26.65;nan
30967;BME280;17649;51.836;8.330;2022-08-03T20:11:34;100797.09;;;26.64;nan
30967;BME280;17649;51.836;8.330;2022-08-03T20:14:39;100802.31;;;26.58;nan
30967;BME280;17649;51.836;8.330;2022-08-03T20:17:40;100800.59;;;26.50;nan
30967;BME280;17649;51.836;8.330;2022-08-03T20:20:52;100800.66;;;26.42;nan
30967;BME280;17649;51.836;8.330;2022-08-03T20:23:54;100796.78;;;26.30;nan
30967;BME280;17649;51.836;8.330;2022-08-03T20:26:57;100798.72;;;26.21;nan
30967;BME280;17649;51.836;8.330;2022-08-03T20:30:00;100802.91;;;26.15;nan
30967;BME280;17649;51.836;8.330;2022-08-03T20:33:02;100808.31;;;26.07;nan
30967;BME280;17649;51.836;8.330;2022-08-03T20:36:12;100805.91;;;25.98;nan
30967;BME280;17649;51.836;8.330;2022-08-03T20:39:16;100805.31;;;25.88;nan
30967;BME280;17649;51.836;8.330;2022-08-03T20:42:19;100806.94;;;25.74;nan
30967;BME280;17649;51.836;8.330;2022-08-03T20:45:32;100807.09;;;25.72;nan
30967;BME280;17649;51.836;8.330;2022-08-03T20:48:49;100810.28;;;25.68;nan
30967;BME280;17649;51.836;8.330;2022-08-03T20:51:55;100814.47;;;25.62;nan
30967;BME280;17649;51.836;8.330;2022-08-03T20:55:08;100781.84;;;25.39;nan
30967;BME280;17649;51.836;8.330;2022-08-03T20:58:34;100803.16;;;25.45;nan
30967;BME280;17649;51.836;8.330;2022-08-03T21:01:40;100813.28;;;25.42;nan
30967;BME280;17649;51.836;8.330;2022-08-03T21:04:41;100774.72;;;25.16;nan
30967;BME280;17649;51.836;8.330;2022-08-03T21:07:47;100799.31;;;25.25;nan
30967;BME280;17649;51.836;8.330;2022-08-03T21:11:10;100807.19;;;25.10;nan
30967;BME280;17649;51.836;8.330;2022-08-03T21:18:19;100821.72;;;25.14;nan
30967;BME280;17649;51.836;8.330;2022-08-03T21:21:31;100789.38;;;24.96;nan
30967;BME280;17649;51.836;8.330;2022-08-03T21:24:38;100801.59;;;25.05;nan
30967;BME280;17649;51.836;8.330;2022-08-03T21:27:39;100814.00;;;25.05;nan
30967;BME280;17649;51.836;8.330;2022-08-03T21:30:43;100804.25;;;24.97;nan
30967;BME280;17649;51.836;8.330;2022-08-03T21:33:48;100799.34;;;24.86;nan
30967;BME280;17649;51.836;8.330;2022-08-03T21:37:14;100803.66;;;24.87;nan
30967;BME280;17649;51.836;8.330;2022-08-03T21:40:15;100790.09;;;24.82;nan
30967;BME280;17649;51.836;8.330;2022-08-03T21:43:15;100794.88;;;24.86;nan
30967;BME280;17649;51.836;8.330;2022-08-03T21:46:17;100795.56;;;24.80;nan
30967;BME280;17649;51.836;8.330;2022-08-03T21:49:18;100796.63;;;24.71;nan
30967;BME280;17649;51.836;8.330;2022-08-03T21:52:20;100804.88;;;24.68;nan
30967;BME280;17649;51.836;8.330;2022-08-03T21:55:28;100795.97;;;24.61;nan
30967;BME280;17649;51.836;8.330;2022-08-03T21:58:36;100794.19;;;24.53;nan
30967;BME280;17649;51.836;8.330;2022-08-03T22:01:41;100805.44;;;24.47;nan
30967;BME280;17649;51.836;8.330;2022-08-03T22:04:43;100805.16;;;24.42;nan
30967;BME280;17649;51.836;8.330;2022-08-03T22:07:51;100808.44;;;24.36;nan
30967;BME280;17649;51.836;8.330;2022-08-03T22:10:59;100809.78;;;24.32;nan
30967;BME280;17649;51.836;8.330;2022-08-03T22:17:28;100792.78;;;24.10;nan
30967;BME280;17649;51.836;8.330;2022-08-03T22:20:31;100806.16;;;24.08;nan
30967;BME280;17649;51.836;8.330;2022-08-03T22:23:38;100802.53;;;24.01;nan
30967;BME280;17649;51.836;8.330;2022-08-03T22:26:42;100802.72;;;23.92;nan
30967;BME280;17649;51.836;8.330;2022-08-03T22:30:12;100819.56;;;23.91;nan
30967;BME280;17649;51.836;8.330;2022-08-03T22:33:15;100823.88;;;23.84;nan
30967;BME280;17649;51.836;8.330;2022-08-03T22:36:17;100819.88;;;23.79;nan
30967;BME280;17649;51.836;8.330;2022-08-03T22:39:18;100822.72;;;23.70;nan
30967;BME280;17649;51.836;8.330;2022-08-03T22:42:24;100826.31;;;23.61;nan
30967;BME280;17649;51.836;8.330;2022-08-03T22:45:29;100825.84;;;23.57;nan
30967;BME280;17649;51.836;8.330;2022-08-03T22:48:36;100829.44;;;23.56;nan
30967;BME280;17649;51.836;8.330;2022-08-03T22:51:39;100837.03;;;23.51;nan
30967;BME280;17649;51.836;8.330;2022-08-03T22:54:41;100834.03;;;23.46;nan
30967;BME280;17649;51.836;8.330;2022-08-03T22:57:44;100833.22;;;23.37;nan
30967;BME280;17649;51.836;8.330;2022-08-03T23:01:09;100838.63;;;23.36;nan
30967;BME280;17649;51.836;8.330;2022-08-03T23:04:14;100839.13;;;23.31;nan
30967;BME280;17649;51.836;8.330;2022-08-03T23:07:42;100838.28;;;23.31;nan
30967;BME280;17649;51.836;8.330;2022-08-03T23:10:47;100833.16;;;23.21;nan
30967;BME280;17649;51.836;8.330;2022-08-03T23:13:52;100829.53;;;23.22;nan
30967;BME280;17649;51.836;8.330;2022-08-03T23:16:59;100832.97;;;23.14;nan
30967;BME280;17649;51.836;8.330;2022-08-03T23:20:06;100836.94;;;23.10;nan
30967;BME280;17649;51.836;8.330;2022-08-03T23:23:09;100833.91;;;23.05;nan
30967;BME280;17649;51.836;8.330;2022-08-03T23:26:15;100828.66;;;23.05;nan
30967;BME280;17649;51.836;8.330;2022-08-03T23:29:19;100835.06;;;23.03;nan
30967;BME280;17649;51.836;8.330;2022-08-03T23:32:26;100842.81;;;23.04;nan
30967;BME280;17649;51.836;8.330;2022-08-03T23:35:28;100828.47;;;22.99;nan
30967;BME280;17649;51.836;8.330;2022-08-03T23:38:49;100832.75;;;22.92;nan
30967;BME280;17649;51.836;8.330;2022-08-03T23:41:52;100831.06;;;22.90;nan
30967;BME280;17649;51.836;8.330;2022-08-03T23:45:03;100820.13;;;22.77;nan
30967;BME280;17649;51.836;8.330;2022-08-03T23:48:06;100821.44;;;22.81;nan
30967;BME280;17649;51.836;8.330;2022-08-03T23:55:03;100832.34;;;22.78;nan
30967;BME280;17649;51.836;8.330;2022-08-03T23:58:17;100821.06;;;22.68;nan
